createdAt,value
2023-02-05T00:01:32.930Z,101876.84
2023-02-05T00:04:00.276Z,101884.91
2023-02-05T00:06:27.392Z,101878.88
2023-02-05T00:08:55.576Z,101863.19
2023-02-05T00:11:23.471Z,101873.03
2023-02-05T00:13:50.384Z,101865.31
2023-02-05T00:16:21.014Z,101868.91
2023-02-05T00:18:48.314Z,101868.16
2023-02-05T00:21:16.388Z,101868.16
2023-02-05T00:23:43.713Z,101871.75
2023-02-05T00:26:11.019Z,101876.19
2023-02-05T00:28:38.137Z,101880.63
2023-02-05T00:31:19.656Z,101872.81
2023-02-05T00:33:47.518Z,101875.44
2023-02-05T00:36:15.181Z,101877.25
2023-02-05T00:38:44.080Z,101876.28
2023-02-05T00:41:11.757Z,101872.59
2023-02-05T00:43:40.131Z,101870.06
2023-02-05T00:46:10.594Z,101868.25
2023-02-05T00:48:38.748Z,101858.53
2023-02-05T00:51:06.168Z,101859.50
2023-02-05T00:53:34.340Z,101860.31
2023-02-05T00:56:01.482Z,101855.16
2023-02-05T00:58:28.799Z,101857.78
2023-02-05T01:00:57.958Z,101857.78
2023-02-05T01:03:25.016Z,101854.31
2023-02-05T01:05:51.953Z,101847.34
2023-02-05T01:08:18.961Z,101859.59
2023-02-05T01:10:49.500Z,101859.59
2023-02-05T01:13:18.243Z,101858.75
2023-02-05T01:15:45.946Z,101850.81
2023-02-05T01:18:13.144Z,101848.19
2023-02-05T01:20:41.889Z,101847.34
2023-02-05T01:23:09.955Z,101845.53
2023-02-05T01:25:37.554Z,101840.31
2023-02-05T01:28:06.591Z,101837.78
2023-02-05T01:30:34.136Z,101828.19
2023-02-05T01:33:02.308Z,101822.88
2023-02-05T01:35:29.668Z,101830.81
2023-02-05T01:37:56.583Z,101839.59
2023-02-05T01:40:23.622Z,101828.28
2023-02-05T01:42:50.640Z,101816.94
2023-02-05T01:45:23.562Z,101815.19
2023-02-05T01:47:56.947Z,101810.81
2023-02-05T01:50:38.872Z,101808.19
2023-02-05T01:53:18.806Z,101801.19
2023-02-05T01:55:56.091Z,101806.47
2023-02-05T01:58:27.452Z,101807.44
2023-02-05T02:00:54.763Z,101808.38
2023-02-05T02:03:24.521Z,101798.78
2023-02-05T02:05:51.777Z,101800.66
2023-02-05T02:08:18.841Z,101796.31
2023-02-05T02:10:48.294Z,101794.63
2023-02-05T02:13:15.671Z,101784.28
2023-02-05T02:15:42.869Z,101788.72
2023-02-05T02:18:26.812Z,101780.88
2023-02-05T02:21:38.953Z,101763.44
2023-02-05T02:24:34.136Z,101756.66
2023-02-05T02:27:15.988Z,101748.22
2023-02-05T02:30:20.600Z,101739.63
2023-02-05T02:33:35.170Z,101739.94
2023-02-05T02:36:26.735Z,101744.56
2023-02-05T02:39:09.316Z,101743.06
2023-02-05T02:41:55.578Z,101750.38
2023-02-05T02:44:56.098Z,101759.31
2023-02-05T02:47:31.466Z,101767.34
2023-02-05T02:50:13.099Z,101763.84
2023-02-05T02:52:44.221Z,101759.53
2023-02-05T02:55:13.256Z,101770.09
2023-02-05T02:57:48.786Z,101766.59
2023-02-05T03:00:27.238Z,101760.47
2023-02-05T03:03:06.715Z,101763.84
2023-02-05T03:05:36.610Z,101764.81
2023-02-05T03:08:10.352Z,101755.94
2023-02-05T03:11:12.654Z,101750.53
2023-02-05T03:13:40.779Z,101749.59
2023-02-05T03:16:08.264Z,101734.72
2023-02-05T03:18:35.812Z,101738.19
2023-02-05T03:21:16.700Z,101739.91
2023-02-05T03:23:44.670Z,101741.59
2023-02-05T03:26:34.921Z,101748.56
2023-02-05T03:29:14.614Z,101734.41
2023-02-05T03:32:01.284Z,101727.22
2023-02-05T03:35:16.109Z,101728.91
2023-02-05T03:38:08.810Z,101728.91
2023-02-05T03:40:52.832Z,101722.72
2023-02-05T03:43:47.694Z,101712.16
2023-02-05T03:46:42.432Z,101715.63
2023-02-05T03:49:35.256Z,101704.22
2023-02-05T03:52:17.136Z,101711.38
2023-02-05T03:55:03.603Z,101716.78
2023-02-05T03:57:42.365Z,101714.97
2023-02-05T04:00:12.646Z,101714.13
2023-02-05T04:02:45.407Z,101714.34
2023-02-05T04:05:17.360Z,101710.09
2023-02-05T04:07:44.639Z,101712.00
2023-02-05T04:10:12.756Z,101708.63
2023-02-05T04:12:40.891Z,101715.78
2023-02-05T04:15:11.574Z,101707.13
2023-02-05T04:17:42.371Z,101714.19
2023-02-05T04:20:10.711Z,101715.16
2023-02-05T04:22:37.725Z,101725.72
2023-02-05T04:25:04.953Z,101713.53
2023-02-05T04:27:32.050Z,101713.53
2023-02-05T04:30:01.030Z,101712.69
2023-02-05T04:32:29.054Z,101713.53
2023-02-05T04:34:56.076Z,101721.47
2023-02-05T04:37:24.887Z,101730.34
2023-02-05T04:39:52.027Z,101733.91
2023-02-05T04:42:18.957Z,101739.94
2023-02-05T04:44:45.923Z,101740.88
2023-02-05T04:47:13.975Z,101747.97
2023-02-05T04:49:40.904Z,101742.69
2023-02-05T04:52:08.197Z,101735.59
2023-02-05T04:54:37.092Z,101740.88
2023-02-05T04:57:04.053Z,101743.41
2023-02-05T04:59:31.569Z,101736.38
2023-02-05T05:01:59.596Z,101744.19
2023-02-05T05:04:26.943Z,101737.13
2023-02-05T05:06:53.833Z,101739.75
2023-02-05T05:09:23.945Z,101743.13
2023-02-05T05:11:55.033Z,101741.34
2023-02-05T05:14:22.473Z,101725.50
2023-02-05T05:16:50.228Z,101728.13
2023-02-05T05:19:17.218Z,101723.69
2023-02-05T05:21:44.162Z,101717.41
2023-02-05T05:24:11.119Z,101716.22
2023-02-05T05:26:43.535Z,101709.06
2023-02-05T05:29:14.344Z,101711.59
2023-02-05T05:31:42.424Z,101703.69
2023-02-05T05:34:09.376Z,101715.94
2023-02-05T05:36:36.325Z,101720.47
2023-02-05T05:39:22.025Z,101718.56
2023-02-05T05:42:07.194Z,101716.78
2023-02-05T05:44:34.122Z,101712.22
2023-02-05T05:47:01.028Z,101732.44
2023-02-05T05:49:28.136Z,101732.31
2023-02-05T05:51:55.034Z,101733.28
2023-02-05T05:54:21.981Z,101722.72
2023-02-05T05:56:49.601Z,101728.00
2023-02-05T05:59:16.711Z,101713.94
2023-02-05T06:01:43.670Z,101719.22
2023-02-05T06:04:10.655Z,101715.72
2023-02-05T06:06:38.054Z,101713.06
2023-02-05T06:09:05.046Z,101718.34
2023-02-05T06:11:32.033Z,101718.34
2023-02-05T06:13:59.000Z,101702.50
2023-02-05T06:16:26.217Z,101704.31
2023-02-05T06:18:54.862Z,101703.56
2023-02-05T06:21:21.880Z,101711.50
2023-02-05T06:23:48.881Z,101706.31
2023-02-05T06:26:15.932Z,101721.31
2023-02-05T06:28:42.866Z,101719.72
2023-02-05T06:31:09.901Z,101724.25
2023-02-05T06:33:36.832Z,101736.72
2023-02-05T06:36:04.186Z,101729.75
2023-02-05T06:38:31.134Z,101734.06
2023-02-05T06:40:58.046Z,101725.31
2023-02-05T06:43:25.038Z,101735.03
2023-02-05T06:45:52.053Z,101730.66
2023-02-05T06:48:18.994Z,101731.63
2023-02-05T06:50:46.389Z,101729.94
2023-02-05T06:53:14.002Z,101736.91
2023-02-05T06:55:41.000Z,101730.66
2023-02-05T06:58:07.969Z,101728.03
2023-02-05T07:00:35.911Z,101717.47
2023-02-05T07:03:02.994Z,101717.47
2023-02-05T07:05:30.004Z,101706.91
2023-02-05T07:07:56.941Z,101714.00
2023-02-05T07:10:24.014Z,101710.31
2023-02-05T07:12:50.939Z,101706.72
2023-02-05T07:15:17.915Z,101703.13
2023-02-05T07:17:44.854Z,101695.09
2023-02-05T07:20:11.858Z,101697.84
2023-02-05T07:22:38.918Z,101710.94
2023-02-05T07:25:06.291Z,101718.03
2023-02-05T07:27:33.257Z,101723.19
2023-02-05T07:30:00.222Z,101717.06
2023-02-05T07:32:27.165Z,101716.22
2023-02-05T07:34:54.063Z,101717.19
2023-02-05T07:37:21.623Z,101727.75
2023-02-05T07:39:48.729Z,101729.53
2023-02-05T07:42:15.715Z,101720.88
2023-02-05T07:44:49.562Z,101726.16
2023-02-05T07:47:16.656Z,101716.56
2023-02-05T07:49:43.579Z,101719.19
2023-02-05T07:52:10.484Z,101726.34
2023-02-05T07:54:38.152Z,101721.06
2023-02-05T07:57:06.940Z,101715.78
2023-02-05T07:59:34.017Z,101708.81
2023-02-05T08:02:00.971Z,101715.03
2023-02-05T08:04:27.952Z,101710.72
2023-02-05T08:06:54.916Z,101709.88
2023-02-05T08:09:21.844Z,101703.75
2023-02-05T08:11:48.846Z,101686.22
2023-02-05T08:14:15.796Z,101675.66
2023-02-05T08:16:42.751Z,101679.16
2023-02-05T08:19:15.750Z,101677.53
2023-02-05T08:21:43.884Z,101676.69
2023-02-05T08:24:10.955Z,101667.81
2023-02-05T08:26:37.874Z,101672.25
2023-02-05T08:29:04.837Z,101672.25
2023-02-05T08:31:31.816Z,101668.66
2023-02-05T08:34:00.019Z,101668.66
2023-02-05T08:36:27.819Z,101664.22
2023-02-05T08:38:55.124Z,101659.81
2023-02-05T08:41:22.672Z,101660.66
2023-02-05T08:43:51.307Z,101657.19
2023-02-05T08:46:21.865Z,101649.25
2023-02-05T08:48:49.353Z,101656.22
2023-02-05T08:51:19.455Z,101650.00
2023-02-05T08:53:46.862Z,101649.03
2023-02-05T08:56:14.351Z,101651.47
2023-02-05T08:58:41.771Z,101645.28
2023-02-05T09:01:17.482Z,101650.31
2023-02-05T09:03:45.393Z,101641.47
2023-02-05T09:06:16.018Z,101627.31
2023-02-05T09:08:43.505Z,101636.00
2023-02-05T09:11:13.338Z,101626.16
2023-02-05T09:13:41.060Z,101632.16
2023-02-05T09:16:11.190Z,101631.22
2023-02-05T09:18:38.221Z,101623.09
2023-02-05T09:21:10.322Z,101624.78
2023-02-05T09:23:37.868Z,101618.56
2023-02-05T09:26:05.441Z,101625.53
2023-02-05T09:28:32.428Z,101614.78
2023-02-05T09:31:04.187Z,101612.97
2023-02-05T09:33:31.173Z,101610.22
2023-02-05T09:35:58.062Z,101604.75
2023-02-05T09:38:24.971Z,101604.53
2023-02-05T09:41:09.473Z,101610.53
2023-02-05T09:43:54.784Z,101612.97
2023-02-05T09:46:53.301Z,101620.78
2023-02-05T09:49:29.613Z,101621.44
2023-02-05T09:52:27.302Z,101627.47
2023-02-05T09:55:07.573Z,101628.19
2023-02-05T09:57:40.638Z,101626.28
2023-02-05T10:00:52.598Z,101620.78
2023-02-05T10:03:29.770Z,101612.66
2023-02-05T10:06:30.881Z,101602.84
2023-02-05T10:09:44.498Z,101604.53
2023-02-05T10:12:31.948Z,101606.94
2023-02-05T10:15:37.368Z,101598.06
2023-02-05T10:19:05.375Z,101596.16
2023-02-05T10:22:04.571Z,101604.81
2023-02-05T10:25:18.243Z,101604.72
2023-02-05T10:28:33.412Z,101597.53
2023-02-05T10:31:21.845Z,101590.53
2023-02-05T10:33:56.041Z,101581.69
2023-02-05T10:36:26.668Z,101581.69
2023-02-05T10:38:56.984Z,101561.38
2023-02-05T10:41:39.639Z,101568.34
2023-02-05T10:44:40.302Z,101564.97
2023-02-05T10:47:42.300Z,101564.97
2023-02-05T10:50:46.752Z,101560.63
2023-02-05T10:53:21.193Z,101558.81
2023-02-05T10:55:48.673Z,101558.09
2023-02-05T10:58:40.456Z,101558.09
2023-02-05T11:01:23.725Z,101553.66
2023-02-05T11:04:12.427Z,101550.06
2023-02-05T11:06:53.436Z,101551.78
2023-02-05T11:09:26.303Z,101553.47
2023-02-05T11:11:56.485Z,101549.84
2023-02-05T11:14:39.722Z,101525.09
2023-02-05T11:17:21.105Z,101517.06
2023-02-05T11:20:04.848Z,101511.66
2023-02-05T11:22:35.746Z,101522.22
2023-02-05T11:25:21.280Z,101526.69
2023-02-05T11:27:55.663Z,101522.22
2023-02-05T11:30:53.084Z,101518.66
2023-02-05T11:33:28.770Z,101511.47
2023-02-05T11:36:05.562Z,101516.75
2023-02-05T11:38:47.900Z,101517.59
2023-02-05T11:41:47.965Z,101518.44
2023-02-05T11:44:31.964Z,101514.81
2023-02-05T11:47:01.577Z,101517.34
2023-02-05T11:49:35.296Z,101526.25
2023-02-05T11:52:13.967Z,101522.75
2023-02-05T11:54:47.442Z,101527.91
2023-02-05T11:57:19.961Z,101532.28
2023-02-05T12:00:03.546Z,101526.88
2023-02-05T12:02:35.793Z,101518.94
2023-02-05T12:05:24.040Z,101509.94
2023-02-05T12:08:16.124Z,101515.22
2023-02-05T12:11:16.894Z,101517.03
2023-02-05T12:14:19.513Z,101510.78
2023-02-05T12:17:02.772Z,101500.22
2023-02-05T12:19:57.036Z,101489.63
2023-02-05T12:22:51.029Z,101493.25
2023-02-05T12:25:23.746Z,101487.94
2023-02-05T12:28:30.774Z,101486.16
2023-02-05T12:31:09.486Z,101478.94
2023-02-05T12:34:13.774Z,101482.47
2023-02-05T12:37:12.023Z,101480.53
2023-02-05T12:39:54.573Z,101466.47
2023-02-05T12:42:40.404Z,101464.66
2023-02-05T12:45:35.271Z,101456.63
2023-02-05T12:48:39.151Z,101459.16
2023-02-05T12:51:46.940Z,101463.47
2023-02-05T12:54:42.534Z,101462.53
2023-02-05T12:57:40.536Z,101463.47
2023-02-05T13:00:24.340Z,101463.38
2023-02-05T13:03:18.454Z,101466.88
2023-02-05T13:06:28.156Z,101457.13
2023-02-05T13:09:08.103Z,101464.94
2023-02-05T13:11:56.316Z,101469.28
2023-02-05T13:14:54.809Z,101470.03
2023-02-05T13:17:27.029Z,101463.97
2023-02-05T13:20:46.814Z,101457.66
2023-02-05T13:23:33.760Z,101458.47
2023-02-05T13:26:21.964Z,101462.81
2023-02-05T13:28:56.988Z,101457.41
2023-02-05T13:31:42.104Z,101444.06
2023-02-05T13:34:13.981Z,101449.34
2023-02-05T13:37:12.971Z,101451.91
2023-02-05T13:40:08.941Z,101451.91
2023-02-05T13:43:03.304Z,101449.13
2023-02-05T13:46:03.282Z,101442.75
2023-02-05T13:49:07.302Z,101449.66
2023-02-05T13:52:08.076Z,101446.75
2023-02-05T13:55:11.863Z,101438.69
2023-02-05T13:58:19.366Z,101434.16
2023-02-05T14:01:25.494Z,101432.13
2023-02-05T14:04:08.573Z,101426.59
2023-02-05T14:06:39.916Z,101426.38
2023-02-05T14:09:18.969Z,101431.41
2023-02-05T14:12:00.006Z,101421.56
2023-02-05T14:14:36.117Z,101425.78
2023-02-05T14:17:28.824Z,101422.03
2023-02-05T14:19:58.809Z,101433.38
2023-02-05T14:22:43.212Z,101427.13
2023-02-05T14:25:36.873Z,101428.78
2023-02-05T14:28:15.943Z,101433.13
2023-02-05T14:30:57.220Z,101441.06
2023-02-05T14:33:45.515Z,101442.03
2023-02-05T14:36:20.746Z,101449.84
2023-02-05T14:39:04.124Z,101447.94
2023-02-05T14:41:50.332Z,101453.13
2023-02-05T14:44:25.741Z,101453.00
2023-02-05T14:47:03.175Z,101456.25
2023-02-05T14:49:32.902Z,101454.53
2023-02-05T14:52:25.529Z,101451.91
2023-02-05T14:55:04.822Z,101456.25
2023-02-05T14:57:51.910Z,101464.91
2023-02-05T15:00:32.322Z,101468.28
2023-02-05T15:03:04.719Z,101466.38
2023-02-05T15:05:36.586Z,101460.13
2023-02-05T15:08:34.609Z,101474.06
2023-02-05T15:11:46.432Z,101473.13
2023-02-05T15:14:30.766Z,101472.28
2023-02-05T15:17:06.641Z,101473.13
2023-02-05T15:19:42.026Z,101473.94
2023-02-05T15:22:40.520Z,101467.81
2023-02-05T15:25:35.959Z,101471.44
2023-02-05T15:28:21.755Z,101479.38
2023-02-05T15:31:14.901Z,101477.69
2023-02-05T15:34:34.586Z,101485.84
2023-02-05T15:37:10.288Z,101482.47
2023-02-05T15:39:44.843Z,101477.44
2023-02-05T15:42:28.093Z,101489.06
2023-02-05T15:44:55.200Z,101494.50
2023-02-05T15:47:26.128Z,101495.47
2023-02-05T15:49:57.825Z,101502.69
2023-02-05T15:52:29.533Z,101499.28
2023-02-05T15:55:08.556Z,101498.44
2023-02-05T15:57:35.686Z,101506.63
2023-02-05T16:00:07.362Z,101502.28
2023-02-05T16:02:34.487Z,101506.00
2023-02-05T16:05:16.847Z,101515.72
2023-02-05T16:07:48.493Z,101512.50
2023-02-05T16:10:23.256Z,101514.38
2023-02-05T16:13:05.193Z,101522.44
2023-02-05T16:15:40.767Z,101522.69
2023-02-05T16:18:32.976Z,101529.03
2023-02-05T16:21:38.626Z,101534.44
2023-02-05T16:24:33.194Z,101527.59
2023-02-05T16:27:18.958Z,101530.31
2023-02-05T16:29:54.954Z,101532.13
2023-02-05T16:32:33.538Z,101537.41
2023-02-05T16:35:03.909Z,101542.69
2023-02-05T16:37:32.088Z,101548.94
2023-02-05T16:40:03.222Z,101546.31
2023-02-05T16:42:38.137Z,101557.00
2023-02-05T16:45:08.127Z,101564.09
2023-02-05T16:47:36.374Z,101565.06
2023-02-05T16:50:38.018Z,101569.59
2023-02-05T16:53:22.032Z,101574.16
2023-02-05T16:55:52.023Z,101589.19
2023-02-05T16:58:26.252Z,101598.06
2023-02-05T17:00:59.661Z,101596.41
2023-02-05T17:03:34.916Z,101585.81
2023-02-05T17:06:08.707Z,101585.81
2023-02-05T17:08:37.110Z,101589.41
2023-02-05T17:11:34.473Z,101602.66
2023-02-05T17:14:32.929Z,101603.56
2023-02-05T17:17:17.184Z,101607.06
2023-02-05T17:20:01.651Z,101608.84
2023-02-05T17:22:28.726Z,101618.59
2023-02-05T17:24:55.727Z,101615.09
2023-02-05T17:27:33.531Z,101624.00
2023-02-05T17:30:00.610Z,101628.34
2023-02-05T17:32:29.276Z,101610.78
2023-02-05T17:34:56.320Z,101621.34
2023-02-05T17:37:23.371Z,101621.34
2023-02-05T17:39:51.449Z,101632.78
2023-02-05T17:42:24.978Z,101627.72
2023-02-05T17:44:53.564Z,101633.72
2023-02-05T17:47:20.557Z,101631.09
2023-02-05T17:49:47.774Z,101639.03
2023-02-05T17:52:15.661Z,101631.09
2023-02-05T17:54:43.560Z,101636.38
2023-02-05T17:57:22.353Z,101634.69
2023-02-05T17:59:50.072Z,101646.13
2023-02-05T18:02:17.583Z,101640.81
2023-02-05T18:04:45.294Z,101645.28
2023-02-05T18:07:38.197Z,101646.22
2023-02-05T18:10:06.566Z,101644.44
2023-02-05T18:12:33.571Z,101635.66
2023-02-05T18:15:00.544Z,101633.00
2023-02-05T18:17:27.479Z,101640.94
2023-02-05T18:19:54.438Z,101640.09
2023-02-05T18:22:21.595Z,101642.75
2023-02-05T18:24:48.539Z,101647.19
2023-02-05T18:27:15.546Z,101653.41
2023-02-05T18:29:43.809Z,101661.25
2023-02-05T18:32:10.989Z,101658.69
2023-02-05T18:34:39.788Z,101670.22
2023-02-05T18:37:06.784Z,101675.53
2023-02-05T18:39:33.690Z,101678.28
2023-02-05T18:42:00.878Z,101683.56
2023-02-05T18:44:28.042Z,101689.94
2023-02-05T18:46:55.069Z,101688.22
2023-02-05T18:49:22.177Z,101694.56
2023-02-05T18:51:49.155Z,101697.31
2023-02-05T18:54:16.106Z,101696.59
2023-02-05T18:56:43.151Z,101697.63
2023-02-05T18:59:15.876Z,101698.81
2023-02-05T19:01:43.140Z,101703.25
2023-02-05T19:04:14.249Z,101714.03
2023-02-05T19:06:48.895Z,101717.63
2023-02-05T19:09:15.917Z,101709.91
2023-02-05T19:11:44.103Z,101709.16
2023-02-05T19:14:14.354Z,101733.91
2023-02-05T19:16:41.427Z,101727.88
2023-02-05T19:19:08.755Z,101726.19
2023-02-05T19:21:36.156Z,101721.09
2023-02-05T19:24:09.625Z,101725.66
2023-02-05T19:26:39.422Z,101719.72
2023-02-05T19:29:11.849Z,101720.78
2023-02-05T19:31:38.923Z,101725.34
2023-02-05T19:34:06.392Z,101723.72
2023-02-05T19:36:33.917Z,101726.47
2023-02-05T19:39:06.577Z,101723.09
2023-02-05T19:41:35.822Z,101730.28
2023-02-05T19:44:06.480Z,101741.06
2023-02-05T19:46:41.925Z,101748.25
2023-02-05T19:49:17.349Z,101759.72
2023-02-05T19:51:46.393Z,101766.94
2023-02-05T19:54:14.909Z,101768.84
2023-02-05T19:56:45.266Z,101768.94
2023-02-05T19:59:13.070Z,101757.59
2023-02-05T20:01:43.619Z,101759.41
2023-02-05T20:04:24.756Z,101761.31
2023-02-05T20:06:55.655Z,101771.13
2023-02-05T20:09:23.289Z,101769.53
2023-02-05T20:11:52.657Z,101779.25
2023-02-05T20:14:20.248Z,101779.25
2023-02-05T20:16:47.458Z,101784.53
2023-02-05T20:19:16.841Z,101784.53
2023-02-05T20:21:45.717Z,101786.31
2023-02-05T20:24:13.021Z,101779.25
2023-02-05T20:26:40.028Z,101772.28
2023-02-05T20:29:25.635Z,101769.63
2023-02-05T20:31:54.746Z,101764.56
2023-02-05T20:34:30.270Z,101776.91
2023-02-05T20:37:04.727Z,101782.28
2023-02-05T20:39:34.772Z,101777.97
2023-02-05T20:42:02.485Z,101785.13
2023-02-05T20:44:33.731Z,101789.47
2023-02-05T20:47:00.803Z,101801.81
2023-02-05T20:49:28.388Z,101795.69
2023-02-05T20:51:57.972Z,101800.97
2023-02-05T20:54:25.000Z,101808.06
2023-02-05T20:56:56.881Z,101808.13
2023-02-05T20:59:24.662Z,101804.75
2023-02-05T21:01:52.054Z,101805.81
2023-02-05T21:04:20.289Z,101811.94
2023-02-05T21:06:48.116Z,101812.03
2023-02-05T21:09:16.880Z,101819.13
2023-02-05T21:11:43.786Z,101822.69
2023-02-05T21:14:11.175Z,101819.31
2023-02-05T21:16:39.024Z,101828.19
2023-02-05T21:19:07.589Z,101842.31
2023-02-05T21:21:36.723Z,101844.19
2023-02-05T21:24:08.328Z,101847.78
2023-02-05T21:26:46.159Z,101854.13
2023-02-05T21:29:20.444Z,101853.38
2023-02-05T21:31:50.669Z,101864.78
2023-02-05T21:34:23.545Z,101856.09
2023-02-05T21:36:51.679Z,101858.72
2023-02-05T21:39:20.297Z,101860.63
2023-02-05T21:41:48.497Z,101863.38
2023-02-05T21:44:15.386Z,101874.78
2023-02-05T21:46:42.714Z,101871.38
2023-02-05T21:49:11.273Z,101868.75
2023-02-05T21:51:38.314Z,101867.03
2023-02-05T21:54:06.238Z,101852.13
2023-02-05T21:56:40.862Z,101864.38
2023-02-05T21:59:08.280Z,101875.81
2023-02-05T22:01:36.735Z,101874.09
2023-02-05T22:04:15.635Z,101879.38
2023-02-05T22:06:43.279Z,101885.50
2023-02-05T22:09:14.632Z,101888.06
2023-02-05T22:11:42.251Z,101888.91
2023-02-05T22:14:10.948Z,101884.59
2023-02-05T22:16:38.949Z,101890.72
2023-02-05T22:19:06.704Z,101894.19
2023-02-05T22:21:37.404Z,101892.50
2023-02-05T22:24:06.540Z,101899.66
2023-02-05T22:26:37.033Z,101911.16
2023-02-05T22:29:07.050Z,101915.69
2023-02-05T22:31:34.947Z,101911.44
2023-02-05T22:34:02.480Z,101916.91
2023-02-05T22:36:32.637Z,101924.06
2023-02-05T22:39:00.140Z,101918.22
2023-02-05T22:41:34.551Z,101921.91
2023-02-05T22:44:03.829Z,101918.50
2023-02-05T22:46:34.860Z,101911.63
2023-02-05T22:49:03.153Z,101903.03
2023-02-05T22:51:34.036Z,101902.28
2023-02-05T22:54:01.290Z,101906.81
2023-02-05T22:56:28.630Z,101913.22
2023-02-05T22:58:56.560Z,101935.34
2023-02-05T23:01:30.179Z,101925.75
2023-02-05T23:03:58.590Z,101923.19
2023-02-05T23:06:35.162Z,101907.34
2023-02-05T23:09:16.525Z,101910.09
2023-02-05T23:11:44.635Z,101925.06
2023-02-05T23:14:13.911Z,101942.78
2023-02-05T23:16:44.440Z,101957.78
2023-02-05T23:19:16.128Z,101955.19
2023-02-05T23:21:43.219Z,101953.50
2023-02-05T23:24:10.673Z,101976.28
2023-02-05T23:26:42.570Z,101971.03
2023-02-05T23:29:12.254Z,101973.59
2023-02-05T23:31:39.573Z,101970.00
2023-02-05T23:34:06.761Z,101970.00
2023-02-05T23:36:33.819Z,101966.53
2023-02-05T23:39:00.812Z,101972.66
2023-02-05T23:41:37.097Z,101973.50
2023-02-05T23:44:15.775Z,101972.66
2023-02-05T23:46:43.709Z,101971.72
2023-02-05T23:49:11.294Z,101986.69
2023-02-05T23:51:38.707Z,101984.03
2023-02-05T23:54:08.587Z,101982.34
2023-02-05T23:56:35.508Z,101982.34
2023-02-05T23:59:03.164Z,101979.81
